Station Historical Data
Daily Summary for October 17, 2017 Units:  Metric    English   Both
« Previous Day
Next Day »
Daily Weekly Monthly Yearly Custom
  High: Low: Average:
Temperature: 19.3 °C 6.9 °C 12.3 °C
Dew Point: 8.7 °C 5.2 °C 6.9 °C
Humidity: 91% 41% 72%
Wind Speed: 22.5km/h 1.6km/h 6.9km/h
Wind Gust: 32.2km/h - -
Wind- - East
Pressure: 1029 hPa 1024.3 hPa -
Precipitation: 0 mm    
Historical Graphs
 
 
Tabular Data for October 17, 2017
Time Temperature Dew Point Pressure Wind Wind Speed Wind Gust Humidity Rainfall Rate (Hourly) Conditions
00:00 10 °C 7.6 °C 1024.3 hPa North 9.7 km/h 9.7 km/h 85% 0 mm RA
00:05 10 °C 7.6 °C 1024.3 hPa North 9.7 km/h 9.7 km/h 85% 0 mm FEW
00:10 10 °C 7.6 °C 1024.3 hPa North 9.7 km/h 9.7 km/h 85% 0 mm FEW
00:15 9.9 °C 7.7 °C 1024.3 hPa North 8 km/h 9.7 km/h 86% 0 mm CLR
00:20 9.9 °C 7.7 °C 1024.3 hPa NNE 8 km/h 8 km/h 86% 0 mm CLR
00:25 9.8 °C 7.7 °C 1024.3 hPa NNE 8 km/h 8 km/h 87% 0 mm CLR
00:30 9.7 °C 7.7 °C 1024.3 hPa NNE 8 km/h 8 km/h 87% 0 mm CLR
00:35 9.6 °C 7.6 °C 1024.3 hPa NNE 8 km/h 8 km/h 87% 0 mm CLR
00:40 9.6 °C 7.6 °C 1024.3 hPa NNE 8 km/h 8 km/h 87% 0 mm CLR
00:45 9.6 °C 7.5 °C 1024.6 hPa NNE 8 km/h 8 km/h 87% 0 mm CLR
00:50 9.4 °C 7.4 °C 1024.6 hPa NNE 8 km/h 8 km/h 87% 0 mm CLR
00:55 9.4 °C 7.5 °C 1024.6 hPa NNE 8 km/h 8 km/h 88% 0 mm CLR
01:00 9.3 °C 7.4 °C 1024.6 hPa NNE 8 km/h 8 km/h 88% 0 mm CLR
01:05 9.3 °C 7.4 °C 1024.6 hPa NNE 8 km/h 8 km/h 88% 0 mm CLR
01:10 9.3 °C 7.4 °C 1024.6 hPa NNE 8 km/h 8 km/h 88% 0 mm CLR
01:20 9.2 °C 7.3 °C 1024.6 hPa NNE 4.8 km/h 4.8 km/h 88% 0 mm SCT
01:25 9.2 °C 7.3 °C 1024.6 hPa NNE 4.8 km/h 4.8 km/h 88% 0 mm SCT
01:30 9.2 °C 7.3 °C 1024.6 hPa NNE 4.8 km/h 4.8 km/h 88% 0 mm SCT
01:35 9.2 °C 7.1 °C 1024.6 hPa NNE 4.8 km/h 4.8 km/h 87% 0 mm SCT
01:40 9.2 °C 7.1 °C 1024.6 hPa NNE 4.8 km/h 4.8 km/h 87% 0 mm SCT
01:45 9.2 °C 7.1 °C 1024.6 hPa NNE 4.8 km/h 4.8 km/h 87% 0 mm SCT
01:50 9.2 °C 7.1 °C 1024.6 hPa NNE 4.8 km/h 4.8 km/h 87% 0 mm SCT
01:55 9.2 °C 7.1 °C 1024.9 hPa NNE 4.8 km/h 4.8 km/h 87% 0 mm SCT
02:00 9.2 °C 7.1 °C 1024.9 hPa NNE 4.8 km/h 4.8 km/h 87% 0 mm SCT
02:05 9.1 °C 7.1 °C 1024.9 hPa NNE 4.8 km/h 4.8 km/h 87% 0 mm SCT
02:10 9.1 °C 7.2 °C 1024.9 hPa NNE 4.8 km/h 4.8 km/h 88% 0 mm SCT
02:15 9.1 °C 7.2 °C 1024.6 hPa NE 1.6 km/h 4.8 km/h 88% 0 mm FEW
02:20 8.9 °C 7.1 °C 1024.9 hPa ENE 1.6 km/h 1.6 km/h 88% 0 mm FEW
02:25 8.9 °C 7.2 °C 1024.9 hPa ENE 1.6 km/h 1.6 km/h 89% 0 mm FEW
02:30 8.9 °C 7.2 °C 1024.9 hPa ENE 1.6 km/h 1.6 km/h 89% 0 mm FEW
02:35 8.9 °C 7.2 °C 1024.9 hPa ENE 1.6 km/h 1.6 km/h 89% 0 mm FEW
02:40 8.8 °C 7.2 °C 1024.9 hPa ENE 1.6 km/h 1.6 km/h 89% 0 mm FEW
02:45 8.8 °C 7.1 °C 1024.6 hPa ENE 1.6 km/h 1.6 km/h 89% 0 mm FEW
02:50 8.8 °C 7.1 °C 1024.6 hPa ENE 1.6 km/h 1.6 km/h 89% 0 mm FEW
02:55 8.8 °C 7.1 °C 1024.6 hPa ENE 1.6 km/h 1.6 km/h 89% 0 mm FEW
03:00 8.8 °C 7.1 °C 1024.9 hPa ENE 1.6 km/h 1.6 km/h 89% 0 mm FEW
03:05 8.8 °C 6.9 °C 1024.9 hPa ENE 1.6 km/h 1.6 km/h 88% 0 mm FEW
03:10 8.8 °C 6.9 °C 1024.9 hPa ENE 1.6 km/h 1.6 km/h 88% 0 mm FEW
03:15 8.8 °C 7 °C 1024.9 hPa ENE 1.6 km/h 1.6 km/h 88% 0 mm FEW
03:20 8.8 °C 6.9 °C 1024.9 hPa ENE 1.6 km/h 1.6 km/h 88% 0 mm FEW
03:25 8.9 °C 6.8 °C 1024.9 hPa ENE 1.6 km/h 1.6 km/h 87% 0 mm FEW
03:30 8.9 °C 6.8 °C 1024.9 hPa ENE 1.6 km/h 1.6 km/h 87% 0 mm FEW
03:35 8.9 °C 6.7 °C 1024.9 hPa ENE 1.6 km/h 1.6 km/h 86% 0 mm FEW
03:40 8.9 °C 6.7 °C 1024.9 hPa ENE 1.6 km/h 1.6 km/h 86% 0 mm FEW
03:45 8.9 °C 6.7 °C 1024.9 hPa ENE 1.6 km/h 1.6 km/h 86% 0 mm FEW
03:50 8.9 °C 6.7 °C 1024.9 hPa ENE 1.6 km/h 1.6 km/h 86% 0 mm FEW
03:55 8.9 °C 6.7 °C 1024.9 hPa ENE 1.6 km/h 1.6 km/h 86% 0 mm FEW
04:00 8.9 °C 6.7 °C 1024.9 hPa ENE 1.6 km/h 1.6 km/h 86% 0 mm FEW
04:05 8.8 °C 6.8 °C 1024.9 hPa ENE 1.6 km/h 1.6 km/h 87% 0 mm FEW
04:10 8.8 °C 6.6 °C 1024.9 hPa ENE 1.6 km/h 1.6 km/h 86% 0 mm FEW
04:15 8.7 °C 6.5 °C 1025.3 hPa North 3.2 km/h 3.2 km/h 86% 0 mm FEW
04:20 8.7 °C 6.7 °C 1025.3 hPa North 3.2 km/h 3.2 km/h 87% 0 mm FEW
04:25 8.7 °C 6.7 °C 1024.9 hPa North 3.2 km/h 3.2 km/h 87% 0 mm FEW
04:30 8.6 °C 6.6 °C 1025.3 hPa North 3.2 km/h 3.2 km/h 87% 0 mm FEW
04:35 8.6 °C 6.5 °C 1025.3 hPa North 3.2 km/h 3.2 km/h 87% 0 mm FEW
04:40 8.4 °C 6.4 °C 1025.3 hPa North 3.2 km/h 3.2 km/h 87% 0 mm FEW
04:45 8.4 °C 6.2 °C 1025.3 hPa North 3.2 km/h 3.2 km/h 86% 0 mm FEW
04:50 8.5 °C 6.3 °C 1025.3 hPa North 3.2 km/h 3.2 km/h 86% 0 mm FEW
04:55 8.4 °C 6.2 °C 1025.3 hPa North 3.2 km/h 3.2 km/h 86% 0 mm FEW
05:00 8.4 °C 6.1 °C 1025.3 hPa North 3.2 km/h 3.2 km/h 85% 0 mm FEW
05:05 8.4 °C 6.2 °C 1025.3 hPa North 3.2 km/h 3.2 km/h 86% 0 mm FEW
05:10 8.4 °C 6.2 °C 1025.6 hPa North 3.2 km/h 3.2 km/h 86% 0 mm FEW
05:15 8.3 °C 6.1 °C 1025.6 hPa NNE 3.2 km/h 3.2 km/h 86% 0 mm FEW
05:20 8.3 °C 6.3 °C 1025.6 hPa NE 3.2 km/h 3.2 km/h 87% 0 mm FEW
05:25 8.2 °C 6.2 °C 1025.6 hPa NE 3.2 km/h 3.2 km/h 87% 0 mm FEW
05:30 8.2 °C 6.1 °C 1025.6 hPa NE 3.2 km/h 3.2 km/h 87% 0 mm FEW
05:35 8.1 °C 6 °C 1026 hPa NE 3.2 km/h 3.2 km/h 87% 0 mm FEW
05:40 7.9 °C 6.1 °C 1026 hPa NE 3.2 km/h 3.2 km/h 88% 0 mm FEW
05:45 7.8 °C 5.9 °C 1026 hPa NE 3.2 km/h 3.2 km/h 88% 0 mm FEW
05:50 7.8 °C 5.9 °C 1026 hPa NE 3.2 km/h 3.2 km/h 88% 0 mm FEW
05:55 7.6 °C 5.9 °C 1026 hPa NE 3.2 km/h 3.2 km/h 89% 0 mm FEW
06:00 7.5 °C 5.8 °C 1026 hPa NE 3.2 km/h 3.2 km/h 89% 0 mm FEW
06:05 7.4 °C 5.7 °C 1026 hPa NE 3.2 km/h 3.2 km/h 89% 0 mm FEW
06:10 7.3 °C 5.8 °C 1026 hPa NE 3.2 km/h 3.2 km/h 90% 0 mm FEW
06:15 7.3 °C 5.7 °C 1026 hPa NE 4.8 km/h 4.8 km/h 90% 0 mm FEW
06:20 7.2 °C 5.6 °C 1026.3 hPa NE 4.8 km/h 4.8 km/h 90% 0 mm FEW
06:25 7.1 °C 5.6 °C 1026.3 hPa NE 4.8 km/h 4.8 km/h 90% 0 mm FEW
06:30 7.1 °C 5.5 °C 1026.3 hPa NE 4.8 km/h 4.8 km/h 90% 0 mm FEW
06:35 7 °C 5.4 °C 1026.3 hPa NE 4.8 km/h 4.8 km/h 90% 0 mm FEW
06:40 6.9 °C 5.4 °C 1026.3 hPa NE 4.8 km/h 4.8 km/h 90% 0 mm FEW
06:45 6.9 °C 5.6 °C 1026.3 hPa NE 4.8 km/h 4.8 km/h 91% 0 mm FEW
06:50 6.9 °C 5.6 °C 1026.3 hPa NE 4.8 km/h 4.8 km/h 91% 0 mm FEW
06:55 6.9 °C 5.6 °C 1026.6 hPa NE 4.8 km/h 4.8 km/h 91% 0 mm FEW
07:00 7 °C 5.6 °C 1026.6 hPa NE 4.8 km/h 4.8 km/h 91% 0 mm FEW
07:05 7.1 °C 5.5 °C 1026.6 hPa NE 4.8 km/h 4.8 km/h 90% 0 mm FEW
07:10 7.1 °C 5.5 °C 1027 hPa NE 4.8 km/h 4.8 km/h 90% 0 mm FEW
07:15 7.1 °C 5.6 °C 1027 hPa NE 4.8 km/h 4.8 km/h 90% 0 mm FEW
07:20 7.1 °C 5.6 °C 1027 hPa NE 4.8 km/h 4.8 km/h 90% 0 mm FEW
07:25 7.1 °C 5.6 °C 1027 hPa NE 4.8 km/h 4.8 km/h 90% 0 mm FEW
07:30 7.1 °C 5.6 °C 1027.3 hPa NE 4.8 km/h 4.8 km/h 90% 0 mm FEW
07:35 7.2 °C 5.6 °C 1027.3 hPa NE 4.8 km/h 4.8 km/h 90% 0 mm FEW
07:40 7.2 °C 5.5 °C 1027.3 hPa NE 4.8 km/h 4.8 km/h 89% 0 mm FEW
07:45 7.2 °C 5.5 °C 1027.3 hPa NE 4.8 km/h 4.8 km/h 89% 0 mm FEW
07:50 7.2 °C 5.5 °C 1027.3 hPa NE 4.8 km/h 4.8 km/h 89% 0 mm FEW
07:55 7.2 °C 5.6 °C 1027.3 hPa NE 4.8 km/h 4.8 km/h 89% 0 mm FEW
08:00 7.3 °C 5.6 °C 1027.3 hPa NE 4.8 km/h 4.8 km/h 89% 0 mm FEW
08:05 7.3 °C 5.5 °C 1027.7 hPa NE 4.8 km/h 4.8 km/h 88% 0 mm FEW
08:10 7.4 °C 5.4 °C 1027.7 hPa NE 4.8 km/h 4.8 km/h 87% 0 mm FEW
08:15 7.6 °C 5.6 °C 1027.7 hPa NE 8 km/h 8 km/h 87% 0 mm FEW
08:20 7.7 °C 5.8 °C 1027.7 hPa NE 8 km/h 8 km/h 88% 0 mm FEW
08:25 7.8 °C 5.9 °C 1027.7 hPa NE 8 km/h 8 km/h 88% 0 mm FEW
08:30 7.9 °C 6.1 °C 1028 hPa NE 8 km/h 8 km/h 88% 0 mm FEW
08:35 8.1 °C 6.2 °C 1028 hPa NE 8 km/h 8 km/h 88% 0 mm FEW
08:40 8.2 °C 6.2 °C 1028 hPa NE 8 km/h 8 km/h 87% 0 mm FEW
08:45 8.4 °C 6.2 °C 1028 hPa NE 8 km/h 8 km/h 86% 0 mm FEW
08:50 8.6 °C 6 °C 1028 hPa NE 8 km/h 8 km/h 84% 0 mm FEW
08:55 8.8 °C 6.3 °C 1028.3 hPa NE 8 km/h 8 km/h 84% 0 mm FEW
09:00 9.1 °C 6.3 °C 1028.3 hPa NE 8 km/h 8 km/h 83% 0 mm FEW
09:05 9.3 °C 6.6 °C 1028.3 hPa NE 8 km/h 8 km/h 83% 0 mm FEW
09:10 9.6 °C 6.3 °C 1028.3 hPa NE 8 km/h 8 km/h 80% 0 mm FEW
09:15 10 °C 6.1 °C 1028.3 hPa NE 8 km/h 8 km/h 77% 0 mm FEW
09:20 10.3 °C 6.3 °C 1028.3 hPa ENE 8 km/h 8 km/h 76% 0 mm FEW
09:30 10.9 °C 6.2 °C 1028.3 hPa ENE 8 km/h 8 km/h 73% 0 mm FEW
09:40 11.4 °C 6.3 °C 1028.3 hPa ENE 8 km/h 8 km/h 71% 0 mm FEW
09:45 11.7 °C 6.4 °C 1028.3 hPa ENE 8 km/h 8 km/h 70% 0 mm FEW
09:50 11.9 °C 6.2 °C 1028.3 hPa ENE 8 km/h 8 km/h 68% 0 mm FEW
09:55 12.2 °C 6.1 °C 1028.3 hPa ENE 8 km/h 8 km/h 66% 0 mm FEW
10:00 12.4 °C 5.8 °C 1028.3 hPa ENE 8 km/h 8 km/h 64% 0 mm FEW
10:05 12.7 °C 6.2 °C 1028.3 hPa ENE 8 km/h 8 km/h 65% 0 mm FEW
10:10 12.9 °C 6.1 °C 1028.3 hPa ENE 8 km/h 8 km/h 63% 0 mm FEW
10:15 13.1 °C 5.9 °C 1028.3 hPa ENE 12.9 km/h 12.9 km/h 62% 0 mm FEW
10:20 13.3 °C 5.9 °C 1028.7 hPa East 12.9 km/h 12.9 km/h 61% 0 mm FEW
10:25 13.3 °C 5.9 °C 1028.7 hPa East 12.9 km/h 12.9 km/h 61% 0 mm FEW
10:30 13.6 °C 6.2 °C 1028.7 hPa East 12.9 km/h 12.9 km/h 61% 0 mm FEW
10:40 13.9 °C 5.2 °C 1028.7 hPa East 12.9 km/h 12.9 km/h 56% 0 mm FEW
10:45 14 °C 5.6 °C 1028.7 hPa East 12.9 km/h 12.9 km/h 57% 0 mm FEW
10:50 14.2 °C 5.3 °C 1028.7 hPa East 12.9 km/h 12.9 km/h 55% 0 mm FEW
10:55 14.6 °C 6.2 °C 1028.7 hPa East 12.9 km/h 12.9 km/h 57% 0 mm FEW
11:00 15 °C 6.3 °C 1028.7 hPa East 12.9 km/h 12.9 km/h 56% 0 mm FEW
11:05 15.3 °C 6.3 °C 1028.7 hPa East 12.9 km/h 12.9 km/h 55% 0 mm FEW
11:10 15.5 °C 5.7 °C 1028.7 hPa East 12.9 km/h 12.9 km/h 52% 0 mm FEW
11:15 15.6 °C 6.3 °C 1028.7 hPa ENE 19.3 km/h 32.2 km/h 54% 0 mm CLR
11:20 15.9 °C 6.6 °C 1028.7 hPa ENE 19.3 km/h 32.2 km/h 54% 0 mm CLR
11:25 16.2 °C 6.3 °C 1028.7 hPa ENE 19.3 km/h 32.2 km/h 52% 0 mm CLR
11:30 16.4 °C 6.8 °C 1029 hPa ENE 19.3 km/h 32.2 km/h 53% 0 mm CLR
11:35 16.6 °C 5.8 °C 1029 hPa ENE 19.3 km/h 32.2 km/h 49% 0 mm CLR
11:40 16.7 °C 6.4 °C 1029 hPa ENE 19.3 km/h 32.2 km/h 51% 0 mm CLR
11:45 16.8 °C 5.7 °C 1028.7 hPa ENE 19.3 km/h 32.2 km/h 48% 0 mm CLR
11:50 17 °C 6.5 °C 1028.7 hPa ENE 19.3 km/h 32.2 km/h 50% 0 mm CLR
11:55 17.3 °C 5.8 °C 1028.7 hPa ENE 19.3 km/h 32.2 km/h 47% 0 mm CLR
12:00 17.1 °C 5.4 °C 1028.7 hPa ENE 19.3 km/h 32.2 km/h 46% 0 mm CLR
12:05 17 °C 6.2 °C 1028.7 hPa ENE 19.3 km/h 32.2 km/h 49% 0 mm CLR
12:10 16.8 °C 5.8 °C 1028.7 hPa ENE 19.3 km/h 32.2 km/h 48% 0 mm CLR
12:15 16.6 °C 5.2 °C 1028.7 hPa East 22.5 km/h 32.2 km/h 47% 0 mm CLR
12:20 16.6 °C 5.8 °C 1028.3 hPa East 22.5 km/h 22.5 km/h 49% 0 mm CLR
12:25 16.5 °C 6.1 °C 1028.3 hPa East 22.5 km/h 22.5 km/h 50% 0 mm CLR
12:30 16.7 °C 6.2 °C 1028.3 hPa East 22.5 km/h 22.5 km/h 50% 0 mm CLR
12:35 16.7 °C 6.2 °C 1028.3 hPa East 22.5 km/h 22.5 km/h 50% 0 mm CLR
12:40 16.7 °C 6.2 °C 1028.3 hPa East 22.5 km/h 22.5 km/h 50% 0 mm CLR
12:45 16.6 °C 6.1 °C 1028.3 hPa East 22.5 km/h 22.5 km/h 50% 0 mm CLR
12:55 16.7 °C 6.5 °C 1028 hPa East 22.5 km/h 22.5 km/h 51% 0 mm CLR
13:00 16.8 °C 6.1 °C 1028 hPa East 22.5 km/h 22.5 km/h 49% 0 mm CLR
13:05 16.8 °C 6.3 °C 1028 hPa East 22.5 km/h 22.5 km/h 50% 0 mm CLR
13:10 16.9 °C 6.2 °C 1028 hPa East 22.5 km/h 22.5 km/h 49% 0 mm CLR
13:15 17.1 °C 6.6 °C 1027.7 hPa East 14.5 km/h 22.5 km/h 50% 0 mm CLR
13:20 17.2 °C 6.4 °C 1027.7 hPa East 14.5 km/h 14.5 km/h 49% 0 mm CLR
13:25 17.3 °C 6.2 °C 1027.7 hPa East 14.5 km/h 14.5 km/h 48% 0 mm CLR
13:30 17.3 °C 5.9 °C 1027.7 hPa East 14.5 km/h 14.5 km/h 47% 0 mm CLR
13:40 17.6 °C 6.2 °C 1027.3 hPa East 14.5 km/h 14.5 km/h 47% 0 mm CLR
13:45 17.8 °C 6.9 °C 1027.3 hPa East 14.5 km/h 14.5 km/h 49% 0 mm CLR
13:50 17.8 °C 6.1 °C 1027.3 hPa East 14.5 km/h 14.5 km/h 46% 0 mm CLR
13:55 18.2 °C 6.7 °C 1027.3 hPa East 14.5 km/h 14.5 km/h 47% 0 mm CLR
14:00 18.4 °C 6.6 °C 1027 hPa East 14.5 km/h 14.5 km/h 46% 0 mm CLR
14:10 18.7 °C 6.5 °C 1027 hPa East 14.5 km/h 14.5 km/h 45% 0 mm CLR
14:15 18.9 °C 7 °C 1026.6 hPa East 9.7 km/h 14.5 km/h 46% 0 mm CLR
14:20 19.1 °C 6.5 °C 1026.6 hPa East 9.7 km/h 9.7 km/h 44% 0 mm CLR
14:25 19.1 °C 6.6 °C 1026.6 hPa East 9.7 km/h 9.7 km/h 44% 0 mm CLR
14:30 19.2 °C 7.6 °C 1026.3 hPa East 9.7 km/h 9.7 km/h 47% 0 mm CLR
14:35 19.3 °C 7.1 °C 1026.3 hPa East 9.7 km/h 9.7 km/h 45% 0 mm CLR
14:40 19 °C 5.8 °C 1026.3 hPa East 9.7 km/h 9.7 km/h 42% 0 mm CLR
14:45 18.7 °C 6.8 °C 1026.3 hPa East 9.7 km/h 9.7 km/h 46% 0 mm CLR
14:50 18.8 °C 6.6 °C 1026 hPa East 9.7 km/h 9.7 km/h 45% 0 mm CLR
14:55 18.9 °C 7 °C 1026 hPa East 9.7 km/h 9.7 km/h 46% 0 mm CLR
15:00 19 °C 6.8 °C 1026 hPa East 9.7 km/h 9.7 km/h 45% 0 mm CLR
15:05 18.9 °C 5.4 °C 1026 hPa East 9.7 km/h 9.7 km/h 41% 0 mm CLR
15:10 18.7 °C 5.8 °C 1026 hPa East 9.7 km/h 9.7 km/h 43% 0 mm CLR
15:15 18.6 °C 5.7 °C 1026 hPa NE 4.8 km/h 9.7 km/h 43% 0 mm CLR
15:20 18.5 °C 6.3 °C 1026 hPa NNE 4.8 km/h 4.8 km/h 45% 0 mm CLR
15:25 18.5 °C 5.7 °C 1026 hPa NNE 4.8 km/h 4.8 km/h 43% 0 mm CLR
15:30 18.4 °C 6.3 °C 1025.6 hPa NNE 4.8 km/h 4.8 km/h 45% 0 mm CLR
15:40 18.5 °C 6 °C 1025.6 hPa NNE 4.8 km/h 4.8 km/h 44% 0 mm CLR
15:45 18.4 °C 5.6 °C 1025.6 hPa NNE 4.8 km/h 4.8 km/h 43% 0 mm CLR
15:50 18.4 °C 5.9 °C 1025.6 hPa NNE 4.8 km/h 4.8 km/h 44% 0 mm CLR
15:55 18.3 °C 6.2 °C 1025.6 hPa NNE 4.8 km/h 4.8 km/h 45% 0 mm CLR
16:00 18.4 °C 6.9 °C 1025.6 hPa NNE 4.8 km/h 4.8 km/h 47% 0 mm CLR
16:05 18.4 °C 6.6 °C 1025.6 hPa NNE 4.8 km/h 4.8 km/h 46% 0 mm CLR
16:10 18.4 °C 6.9 °C 1025.6 hPa NNE 4.8 km/h 4.8 km/h 47% 0 mm CLR
16:15 18.4 °C 6.6 °C 1025.6 hPa ENE 8 km/h 8 km/h 46% 0 mm CLR
16:20 18.4 °C 6.3 °C 1025.6 hPa East 8 km/h 8 km/h 45% 0 mm CLR
16:25 18.4 °C 6.3 °C 1025.6 hPa East 8 km/h 8 km/h 45% 0 mm CLR
16:30 18.4 °C 6.2 °C 1025.3 hPa East 7.4 km/h 7.4 km/h 45% 0 mm CLR
16:35 18.3 °C 6.2 °C 1025.6 hPa East 8 km/h 8 km/h 45% 0 mm CLR
16:40 18.4 °C 7.2 °C 1025.6 hPa East 8 km/h 8 km/h 48% 0 mm CLR
16:45 18.4 °C 7.2 °C 1025.6 hPa East 8 km/h 8 km/h 48% 0 mm CLR
16:50 18.3 °C 8 °C 1025.3 hPa East 8 km/h 8 km/h 51% 0 mm CLR
16:55 18.3 °C 7.1 °C 1025.3 hPa East 7.4 km/h 7.4 km/h 48% 0 mm CLR
17:00 18.2 °C 6.7 °C 1025.3 hPa East 8 km/h 8 km/h 47% 0 mm CLR
17:05 18.2 °C 7.9 °C 1025.3 hPa East 8 km/h 8 km/h 51% 0 mm CLR
17:10 18.1 °C 7.2 °C 1025.3 hPa East 8 km/h 8 km/h 49% 0 mm CLR
17:15 17.9 °C 7.3 °C 1025.3 hPa East 8 km/h 8 km/h 50% 0 mm CLR
17:20 17.8 °C 7.8 °C 1025.3 hPa East 8 km/h 8 km/h 52% 0 mm CLR
17:25 17.7 °C 8.2 °C 1025.3 hPa East 8 km/h 8 km/h 54% 0 mm CLR
17:30 17.4 °C 8.3 °C 1025.3 hPa East 7.4 km/h 7.4 km/h 55% 0 mm CLR
17:35 17.2 °C 8.6 °C 1024.9 hPa East 8 km/h 8 km/h 57% 0 mm CLR
17:40 17.1 °C 8.5 °C 1024.9 hPa East 8 km/h 8 km/h 57% 0 mm CLR
17:45 16.9 °C 8.4 °C 1025.3 hPa East 7.4 km/h 7.4 km/h 57% 0 mm CLR
17:50 16.8 °C 8.3 °C 1024.9 hPa East 8 km/h 8 km/h 57% 0 mm CLR
17:55 16.8 °C 7.9 °C 1024.9 hPa East 8 km/h 8 km/h 56% 0 mm CLR
18:00 16.7 °C 8.4 °C 1025.3 hPa East 8 km/h 8 km/h 58% 0 mm CLR
18:05 16.6 °C 8.5 °C 1025.3 hPa East 5.6 km/h 5.6 km/h 59% 0 mm CLR
18:10 16.4 °C 8.4 °C 1025.3 hPa East 5.6 km/h 5.6 km/h 59% 0 mm CLR
18:15 16.3 °C 8.2 °C 1025.3 hPa East 5.6 km/h 5.6 km/h 59% 0 mm CLR
18:20 16.1 °C 8.6 °C 1025.3 hPa East 5.6 km/h 5.6 km/h 61% 0 mm CLR
18:30 15.8 °C 8.1 °C 1025.3 hPa East 5.6 km/h 5.6 km/h 60% 0 mm CLR
18:35 15.7 °C 8.2 °C 1025.3 hPa East 5.6 km/h 5.6 km/h 61% 0 mm CLR
18:40 15.5 °C 8.2 °C 1025.3 hPa East 5.6 km/h 5.6 km/h 62% 0 mm CLR
18:45 15.4 °C 8.2 °C 1025.3 hPa East 5.6 km/h 5.6 km/h 62% 0 mm CLR
18:51 15.2 °C 7.7 °C 1024.9 hPa East 5.6 km/h 5.6 km/h 61% 0 mm CLR
18:56 15.1 °C 7.6 °C 1024.9 hPa East 5.6 km/h 5.6 km/h 61% 0 mm CLR
19:01 14.8 °C 7.6 °C 1024.9 hPa East 5.6 km/h 5.6 km/h 62% 0 mm CLR
19:06 14.6 °C 8.1 °C 1024.9 hPa NE 5.6 km/h 5.6 km/h 65% 0 mm CLR
19:11 14.4 °C 8.4 °C 1025.3 hPa NE 5.6 km/h 5.6 km/h 67% 0 mm CLR
19:16 14.3 °C 8.5 °C 1025.3 hPa NE 5.6 km/h 5.6 km/h 68% 0 mm CLR
19:21 14.1 °C 8.5 °C 1025.3 hPa NE 5.6 km/h 5.6 km/h 69% 0 mm CLR
19:26 13.9 °C 7.9 °C 1025.3 hPa NE 5.6 km/h 5.6 km/h 67% 0 mm CLR
19:31 13.7 °C 8.3 °C 1025.3 hPa NE 5.6 km/h 5.6 km/h 70% 0 mm CLR
19:36 13.5 °C 8.3 °C 1025.3 hPa NE 5.6 km/h 5.6 km/h 71% 0 mm CLR
19:41 13.3 °C 8.6 °C 1025.3 hPa NE 5.6 km/h 5.6 km/h 73% 0 mm CLR
19:46 13.1 °C 8.1 °C 1025.3 hPa NE 5.6 km/h 5.6 km/h 72% 0 mm CLR
19:51 12.9 °C 8.4 °C 1025.3 hPa NE 5.6 km/h 5.6 km/h 74% 0 mm CLR
19:56 12.8 °C 8.4 °C 1025.3 hPa NE 5.6 km/h 5.6 km/h 75% 0 mm CLR
20:01 12.7 °C 8.3 °C 1025.3 hPa NE 5.6 km/h 5.6 km/h 75% 0 mm CLR
20:06 12.5 °C 8.4 °C 1025.3 hPa NE 5.6 km/h 5.6 km/h 76% 0 mm CLR
20:11 12.4 °C 8.3 °C 1025.3 hPa NE 5.6 km/h 5.6 km/h 76% 0 mm CLR
20:16 12.2 °C 8.5 °C 1025.6 hPa NE 5.6 km/h 5.6 km/h 78% 0 mm CLR
20:21 12.1 °C 8.6 °C 1025.6 hPa NE 5.6 km/h 5.6 km/h 79% 0 mm CLR
20:26 12.1 °C 8.7 °C 1025.6 hPa NE 5.6 km/h 5.6 km/h 80% 0 mm CLR
20:31 11.9 °C 8.6 °C 1025.6 hPa NE 5.6 km/h 5.6 km/h 80% 0 mm CLR
20:36 11.8 °C 8.7 °C 1025.6 hPa NE 5.6 km/h 5.6 km/h 81% 0 mm CLR
20:42 11.7 °C 8.6 °C 1025.6 hPa NE 5.6 km/h 5.6 km/h 81% 0 mm CLR
20:47 11.6 °C 8.4 °C 1025.6 hPa NE 5.6 km/h 5.6 km/h 81% 0 mm CLR
20:52 11.5 °C 8.6 °C 1025.6 hPa NE 5.6 km/h 5.6 km/h 82% 0 mm CLR
20:57 11.4 °C 8.5 °C 1025.6 hPa NE 5.6 km/h 5.6 km/h 82% 0 mm CLR
21:02 11.3 °C 8.4 °C 1025.6 hPa ESE 5.6 km/h 5.6 km/h 82% 0 mm CLR
21:07 11.3 °C 8.3 °C 1026 hPa ESE 1.9 km/h 1.9 km/h 82% 0 mm CLR
21:12 11.2 °C 8.4 °C 1025.6 hPa ESE 1.9 km/h 1.9 km/h 83% 0 mm CLR
21:17 11.2 °C 8.2 °C 1026 hPa ESE 1.9 km/h 1.9 km/h 82% 0 mm CLR
21:22 11.1 °C 8.3 °C 1026 hPa ESE 1.9 km/h 1.9 km/h 83% 0 mm CLR
21:27 11.1 °C 8.3 °C 1026 hPa ESE 1.9 km/h 1.9 km/h 83% 0 mm CLR
21:32 10.9 °C 7.8 °C 1026 hPa ESE 1.9 km/h 1.9 km/h 81% 0 mm CLR
21:37 11 °C 8.2 °C 1026 hPa ESE 1.9 km/h 1.9 km/h 83% 0 mm CLR
21:42 10.9 °C 8.1 °C 1026 hPa ESE 1.9 km/h 1.9 km/h 83% 0 mm CLR
21:47 10.8 °C 8 °C 1026 hPa ESE 1.9 km/h 1.9 km/h 83% 0 mm CLR
21:52 10.7 °C 7.9 °C 1026.3 hPa ESE 1.9 km/h 1.9 km/h 83% 0 mm CLR
21:57 10.8 °C 8.2 °C 1026.3 hPa ESE 1.9 km/h 1.9 km/h 84% 0 mm CLR
22:02 10.7 °C 8.1 °C 1026.6 hPa ESE 1.9 km/h 1.9 km/h 84% 0 mm CLR
22:07 10.7 °C 8.1 °C 1026.6 hPa ESE 1.9 km/h 1.9 km/h 84% 0 mm CLR
22:12 10.7 °C 8.2 °C 1026.6 hPa ESE 1.9 km/h 1.9 km/h 85% 0 mm CLR
22:17 10.6 °C 8.1 °C 1026.6 hPa ESE 1.9 km/h 1.9 km/h 85% 0 mm CLR
22:22 10.5 °C 8.3 °C 1027 hPa ESE 1.9 km/h 1.9 km/h 86% 0 mm CLR
22:27 10.4 °C 8 °C 1027 hPa ESE 1.9 km/h 1.9 km/h 85% 0 mm CLR
22:33 10.3 °C 8.1 °C 1027 hPa ESE 1.9 km/h 1.9 km/h 86% 0 mm CLR
22:38 10.2 °C 8 °C 1027 hPa ESE 1.9 km/h 1.9 km/h 86% 0 mm CLR
22:43 10.2 °C 7.8 °C 1027 hPa ESE 1.9 km/h 1.9 km/h 85% 0 mm CLR
22:48 10.3 °C 7.7 °C 1027.3 hPa ESE 1.9 km/h 1.9 km/h 84% 0 mm CLR
22:53 10.4 °C 8 °C 1027 hPa ESE 1.9 km/h 1.9 km/h 85% 0 mm CLR
22:58 10.3 °C 7.9 °C 1027.3 hPa ESE 1.9 km/h 1.9 km/h 85% 0 mm CLR
23:03 10.2 °C 8 °C 1027.3 hPa ESE 1.9 km/h 1.9 km/h 86% 0 mm CLR
23:08 10.2 °C 7.9 °C 1027 hPa ESE 1.9 km/h 1.9 km/h 86% 0 mm CLR
23:13 10 °C 7.8 °C 1027 hPa ESE 1.9 km/h 1.9 km/h 86% 0 mm CLR
23:21 9.9 °C 7.8 °C 1027 hPa ESE 1.9 km/h   87% 0 mm CLR
23:23 9.8 °C 7.8 °C 1027 hPa ESE 1.9 km/h 1.9 km/h 87% 0 mm CLR
23:24 9.8 °C 7.8 °C 1027 hPa ESE 1.9 km/h 1.9 km/h 87% 0 mm CLR
23:26 9.8 °C 7.7 °C 1027 hPa ESE 1.9 km/h 1.9 km/h 87% 0 mm CLR
23:31 9.7 °C 7.7 °C 1027 hPa ESE 1.9 km/h 1.9 km/h 87% 0 mm CLR
23:32 9.7 °C 7.7 °C 1027 hPa ESE 1.9 km/h 1.9 km/h 87% 0 mm CLR
23:37 9.8 °C 7.7 °C 1027 hPa ESE 1.9 km/h 1.9 km/h 87% 0 mm CLR
23:40 9.8 °C 7.8 °C 1027 hPa ESE 1.9 km/h 1.9 km/h 87% 0 mm CLR
23:45 9.7 °C 7.7 °C 1027 hPa ESE 1.9 km/h 1.9 km/h 87% 0 mm CLR
23:50 9.7 °C 7.6 °C 1027 hPa ESE 1.9 km/h 1.9 km/h 87% 0 mm CLR
23:55 9.6 °C 7.5 °C 1027 hPa ESE 1.9 km/h 1.9 km/h 87% 0 mm CLR
Piedmont Bend
Compliments of Weather Underground - 2 mb